Time;durP1;ratioP1;P1;durP2;ratioP2;P2;SDS_P1;SDS_P2;PMS_P1;PMS_P2;Temp;Humidity;BMP_temperature;BMP_pressure;BME280_temperature;BME280_humidity;BME280_pressure;Samples;Min_cycle;Max_cycle;Signal;HPM_P1;HPM_P2
2023/01/16 00:01:50;;;;;;;5.18;3.60;;;5.00;97.50;;;;;;5091095;27;20465;-93
2023/01/16 00:04:16;;;;;;;5.07;3.25;;;5.00;97.40;;;;;;5091126;27;20399;-91
2023/01/16 00:06:41;;;;;;;4.60;2.90;;;5.10;97.30;;;;;;5106626;27;20486;-90
2023/01/16 00:09:07;;;;;;;5.10;2.50;;;4.90;97.10;;;;;;5090816;27;20394;-90
2023/01/16 00:11:33;;;;;;;5.18;2.30;;;5.00;97.30;;;;;;5089696;27;20390;-92
2023/01/16 00:13:59;;;;;;;4.07;2.40;;;4.90;97.10;;;;;;5090561;28;20395;-92
2023/01/16 00:16:26;;;;;;;5.97;2.42;;;5.00;97.30;;;;;;5107220;27;20919;-91
2023/01/16 00:18:52;;;;;;;5.35;2.75;;;5.00;97.20;;;;;;5091414;27;20750;-91
2023/01/16 00:21:19;;;;;;;4.97;2.78;;;4.90;97.20;;;;;;5090239;28;20387;-90
2023/01/16 00:23:46;;;;;;;6.15;2.95;;;4.90;97.20;;;;;;5090221;28;20455;-91
2023/01/16 00:26:11;;;;;;;5.03;3.15;;;4.90;97.10;;;;;;5091537;28;20457;-92
2023/01/16 00:28:38;;;;;;;7.53;3.90;;;5.10;97.10;;;;;;5089606;28;20463;-91
2023/01/16 00:31:05;;;;;;;6.63;4.00;;;4.90;97.10;;;;;;5090936;28;20387;-91
2023/01/16 00:33:32;;;;;;;7.13;4.38;;;4.90;97.20;;;;;;5089998;28;20490;-90
2023/01/16 00:35:57;;;;;;;7.03;4.20;;;4.90;97.20;;;;;;5090896;28;20391;-92
2023/01/16 00:38:23;;;;;;;5.97;4.07;;;5.00;97.20;;;;;;5089877;28;20678;-92
2023/01/16 00:40:49;;;;;;;7.50;4.30;;;4.90;97.20;;;;;;5107709;28;20406;-91
2023/01/16 00:43:15;;;;;;;5.90;4.60;;;5.00;97.40;;;;;;5090188;28;20909;-92
2023/01/16 00:45:40;;;;;;;8.38;4.85;;;5.10;97.20;;;;;;5092135;27;20398;-91
2023/01/16 00:48:06;;;;;;;7.95;5.13;;;5.00;97.20;;;;;;5094817;27;20406;-92
2023/01/16 00:50:33;;;;;;;10.00;5.28;;;5.10;97.20;;;;;;5093683;27;20865;-92
2023/01/16 00:53:00;;;;;;;8.32;5.95;;;4.90;97.10;;;;;;5094083;27;21498;-91
2023/01/16 00:55:26;;;;;;;9.07;6.43;;;4.90;97.20;;;;;;5093677;27;20446;-92
2023/01/16 00:57:51;;;;;;;9.48;6.70;;;5.00;97.20;;;;;;5094534;27;20435;-92
2023/01/16 01:00:20;;;;;;;10.50;7.07;;;4.90;97.30;;;;;;5111061;27;20399;-91
2023/01/16 01:02:49;;;;;;;11.05;6.60;;;4.90;97.30;;;;;;5094465;27;20410;-90
2023/01/16 01:05:15;;;;;;;9.88;6.03;;;4.90;97.20;;;;;;5094795;27;20485;-92
2023/01/16 01:07:41;;;;;;;9.73;6.40;;;4.90;97.20;;;;;;5093136;27;20481;-92
2023/01/16 01:10:06;;;;;;;10.83;7.10;;;5.10;97.40;;;;;;5094336;27;20386;-91
2023/01/16 01:12:32;;;;;;;9.40;6.67;;;4.80;97.30;;;;;;5110744;27;20463;-91
2023/01/16 01:14:58;;;;;;;10.87;6.87;;;4.90;97.30;;;;;;5094669;27;20399;-91
2023/01/16 01:17:23;;;;;;;9.93;6.72;;;4.80;97.30;;;;;;5093302;27;20977;-92
2023/01/16 01:19:49;;;;;;;11.68;6.03;;;4.80;97.40;;;;;;5093906;27;20401;-91
2023/01/16 01:22:17;;;;;;;9.10;6.00;;;4.70;97.30;;;;;;5093701;27;20398;-91
2023/01/16 01:24:47;;;;;;;9.10;5.78;;;4.70;97.30;;;;;;5093002;27;20395;-93
2023/01/16 01:27:13;;;;;;;8.60;5.65;;;4.70;97.20;;;;;;5094762;27;20485;-90
2023/01/16 01:29:39;;;;;;;11.10;5.90;;;4.70;97.10;;;;;;5092831;27;20559;-91
2023/01/16 01:32:05;;;;;;;9.13;5.90;;;4.70;97.20;;;;;;5093850;27;20394;-90
2023/01/16 01:34:33;;;;;;;9.45;5.80;;;4.70;97.30;;;;;;5093197;27;20390;-90
2023/01/16 01:37:00;;;;;;;8.65;5.03;;;4.80;97.50;;;;;;5110586;27;20454;-91
2023/01/16 01:39:26;;;;;;;9.67;6.60;;;4.70;97.70;;;;;;5093074;27;20395;-91
2023/01/16 01:42:41;;;;;;;11.07;6.47;;;4.90;97.50;;;;;;5093285;27;20406;-92
2023/01/16 01:44:56;;;;;;;10.27;6.20;;;4.80;97.60;;;;;;5110749;27;20401;-90
2023/01/16 01:47:28;;;;;;;9.57;6.20;;;4.70;97.40;;;;;;5092908;27;20402;-91
2023/01/16 01:49:56;;;;;;;9.75;6.30;;;4.70;97.40;;;;;;5093372;27;20407;-92
2023/01/16 01:52:23;;;;;;;10.05;6.38;;;4.60;97.40;;;;;;5093004;27;21007;-90
2023/01/16 01:54:54;;;;;;;10.93;6.70;;;4.60;97.50;;;;;;5092998;27;20390;-91
2023/01/16 01:57:37;;;;;;;10.43;6.47;;;4.50;97.50;;;;;;5093110;27;20426;-92
2023/01/16 02:00:09;;;;;;;10.93;6.40;;;4.60;97.70;;;;;;5092230;27;20382;-91
2023/01/16 02:02:39;;;;;;;9.15;5.72;;;4.50;97.80;;;;;;5093928;27;20479;-90
2023/01/16 02:05:08;;;;;;;10.57;6.20;;;4.50;97.70;;;;;;5093112;27;20443;-91
2023/01/16 02:07:34;;;;;;;10.32;6.47;;;4.60;97.70;;;;;;5110524;27;20397;-91
2023/01/16 02:10:11;;;;;;;10.93;6.90;;;4.50;97.80;;;;;;5093365;27;20490;-90
2023/01/16 02:12:37;;;;;;;9.45;6.00;;;4.70;97.80;;;;;;5092272;27;20403;-91
2023/01/16 02:15:03;;;;;;;9.90;5.63;;;4.50;97.80;;;;;;5093132;27;20387;-93
2023/01/16 02:20:23;;;;;;;10.32;5.72;;;4.50;97.70;;;;;;5110393;27;20403;-92
2023/01/16 02:23:07;;;;;;;8.30;5.18;;;4.40;97.80;;;;;;5092600;27;20434;-92
2023/01/16 02:26:03;;;;;;;11.15;5.15;;;4.40;97.70;;;;;;5091868;27;20547;-93
2023/01/16 02:28:44;;;;;;;8.77;5.20;;;4.40;97.70;;;;;;5093417;27;20405;-91
2023/01/16 02:31:35;;;;;;;9.68;5.45;;;4.30;97.70;;;;;;5092875;27;21127;-91
2023/01/16 02:34:23;;;;;;;9.10;5.00;;;4.30;97.80;;;;;;5091527;27;20402;-91
2023/01/16 02:36:54;;;;;;;10.30;5.40;;;4.20;97.80;;;;;;5092797;27;20461;-91
2023/01/16 02:39:42;;;;;;;10.50;5.60;;;4.20;97.90;;;;;;5092070;27;20399;-92
2023/01/16 02:42:37;;;;;;;10.77;5.40;;;4.20;98.00;;;;;;5092339;27;20724;-91
2023/01/16 02:45:34;;;;;;;9.45;5.05;;;4.20;98.10;;;;;;5109494;27;20937;-91
2023/01/16 02:48:11;;;;;;;11.88;5.65;;;4.10;98.10;;;;;;5091996;27;20770;-91
2023/01/16 02:50:56;;;;;;;10.60;5.68;;;4.10;98.20;;;;;;5092538;27;20433;-91
2023/01/16 02:53:51;;;;;;;9.88;5.47;;;4.10;98.40;;;;;;5092488;27;20451;-91
2023/01/16 02:56:24;;;;;;;11.18;5.38;;;4.10;98.40;;;;;;5091163;27;20418;-91
2023/01/16 02:58:51;;;;;;;11.38;5.38;;;4.10;98.40;;;;;;5092555;27;20395;-92
2023/01/16 03:01:18;;;;;;;10.00;5.70;;;4.20;98.40;;;;;;5091563;27;20395;-90
2023/01/16 03:03:53;;;;;;;11.05;5.90;;;4.20;98.40;;;;;;5092258;27;20405;-91
2023/01/16 03:06:51;;;;;;;10.57;5.53;;;4.40;98.50;;;;;;5092317;27;20440;-91
2023/01/16 03:09:23;;;;;;;9.35;5.43;;;4.30;98.40;;;;;;5090745;27;20402;-90
2023/01/16 03:12:24;;;;;;;11.75;5.55;;;4.30;98.30;;;;;;5092606;27;20438;-91
2023/01/16 03:15:11;;;;;;;8.70;5.37;;;4.30;98.30;;;;;;5091425;27;20495;-90
2023/01/16 03:18:08;;;;;;;10.88;5.55;;;4.30;98.20;;;;;;5090506;27;20440;-91
2023/01/16 03:20:39;;;;;;;9.73;5.20;;;4.40;98.20;;;;;;5092175;27;20402;-92
2023/01/16 03:23:12;;;;;;;10.93;5.28;;;4.50;98.10;;;;;;5091473;27;20398;-92
2023/01/16 03:26:13;;;;;;;8.77;5.10;;;4.40;98.00;;;;;;5091437;27;20769;-91
2023/01/16 03:29:00;;;;;;;11.45;5.47;;;4.40;98.10;;;;;;5091456;27;20406;-92
2023/01/16 03:31:36;;;;;;;9.88;4.90;;;4.40;98.00;;;;;;5090750;27;20406;-91
2023/01/16 03:34:29;;;;;;;10.27;5.35;;;4.40;98.00;;;;;;5091795;27;20480;-91
2023/01/16 03:37:01;;;;;;;8.75;4.85;;;4.40;98.00;;;;;;5091765;27;20479;-91
2023/01/16 03:39:35;;;;;;;9.80;5.22;;;4.50;98.00;;;;;;5090065;27;20470;-90
2023/01/16 03:42:15;;;;;;;11.70;6.07;;;4.50;98.00;;;;;;5091760;27;20403;-90
2023/01/16 03:44:47;;;;;;;12.10;5.47;;;4.50;98.00;;;;;;5107639;27;20409;-91
2023/01/16 03:47:19;;;;;;;12.73;6.00;;;4.50;98.00;;;;;;5091454;27;20399;-91
2023/01/16 03:49:54;;;;;;;11.63;6.45;;;4.50;98.00;;;;;;5091443;27;20391;-90
2023/01/16 03:52:23;;;;;;;10.25;6.32;;;4.90;98.00;;;;;;5090024;27;20418;-91
2023/01/16 03:55:05;;;;;;;10.52;6.63;;;4.50;97.90;;;;;;5091494;27;20493;-92
2023/01/16 03:57:38;;;;;;;12.18;6.97;;;4.60;97.80;;;;;;5090071;27;20446;-91
2023/01/16 04:00:05;;;;;;;12.70;7.35;;;4.50;98.00;;;;;;5091130;27;20394;-91
2023/01/16 04:03:04;;;;;;;10.48;7.63;;;4.50;97.90;;;;;;5090917;27;20399;-91
2023/01/16 04:05:48;;;;;;;11.40;8.37;;;4.50;97.80;;;;;;5090077;27;20406;-92
2023/01/16 04:08:19;;;;;;;11.68;7.40;;;4.70;97.80;;;;;;5091171;27;20406;-93
2023/01/16 04:10:47;;;;;;;12.63;8.07;;;4.60;97.80;;;;;;5106984;27;20406;-91
2023/01/16 04:13:22;;;;;;;13.20;8.68;;;4.70;97.80;;;;;;5091089;28;20485;-91
2023/01/16 04:15:52;;;;;;;13.65;8.60;;;4.60;97.70;;;;;;5091138;27;20410;-92
2023/01/16 04:18:21;;;;;;;12.57;9.15;;;4.80;97.80;;;;;;5089680;27;20479;-91
2023/01/16 04:20:49;;;;;;;12.88;8.20;;;4.60;97.70;;;;;;5091306;27;20923;-92
2023/01/16 04:23:16;;;;;;;12.45;8.45;;;4.60;97.70;;;;;;5089958;28;20394;-92
2023/01/16 04:25:42;;;;;;;12.32;8.85;;;4.60;97.70;;;;;;5091209;28;20931;-92
2023/01/16 04:28:07;;;;;;;13.57;9.40;;;4.60;97.70;;;;;;5090103;28;20398;-91
2023/01/16 04:30:33;;;;;;;15.90;10.38;;;4.60;97.70;;;;;;5090872;28;20766;-92
2023/01/16 04:33:05;;;;;;;12.75;10.20;;;4.60;97.70;;;;;;5090594;28;20391;-92
2023/01/16 04:35:31;;;;;;;13.55;9.63;;;4.60;97.60;;;;;;5106938;28;20694;-91
2023/01/16 04:37:57;;;;;;;14.65;10.30;;;4.60;97.60;;;;;;5090858;28;20518;-93
2023/01/16 04:40:23;;;;;;;16.13;10.38;;;4.60;97.50;;;;;;5089913;28;20486;-90
2023/01/16 04:42:49;;;;;;;13.40;10.82;;;4.70;97.30;;;;;;5090945;28;20409;-92
2023/01/16 04:45:14;;;;;;;15.18;11.73;;;4.60;97.30;;;;;;5106818;28;20485;-91
2023/01/16 04:47:44;;;;;;;16.02;11.60;;;4.60;97.30;;;;;;5090407;28;20406;-90
2023/01/16 04:50:10;;;;;;;17.50;12.23;;;4.70;97.20;;;;;;5090352;28;20391;-92
2023/01/16 04:52:36;;;;;;;16.92;12.13;;;4.70;97.10;;;;;;5090155;28;20391;-93
2023/01/16 04:55:01;;;;;;;20.10;12.67;;;4.70;97.30;;;;;;5090952;28;20398;-92
2023/01/16 04:57:27;;;;;;;17.87;12.00;;;4.70;97.30;;;;;;5106714;28;20418;-91
2023/01/16 04:59:53;;;;;;;16.90;12.25;;;4.80;97.40;;;;;;5108063;28;20827;-92
2023/01/16 05:02:18;;;;;;;17.30;13.23;;;4.70;97.30;;;;;;5089585;28;20482;-91
2023/01/16 05:04:44;;;;;;;19.53;14.00;;;4.90;97.40;;;;;;5090984;28;20754;-92
2023/01/16 05:07:09;;;;;;;22.48;14.52;;;4.70;97.40;;;;;;5090062;28;20402;-91
2023/01/16 05:09:35;;;;;;;21.33;14.15;;;4.80;97.40;;;;;;5091032;28;20438;-92
2023/01/16 05:12:01;;;;;;;19.17;14.30;;;4.80;97.30;;;;;;5090353;28;20395;-91
2023/01/16 05:14:26;;;;;;;22.63;15.63;;;4.80;97.40;;;;;;5089231;28;20777;-92
2023/01/16 05:16:52;;;;;;;18.23;14.25;;;4.80;97.40;;;;;;5090501;28;20418;-93
2023/01/16 05:19:17;;;;;;;21.88;14.98;;;4.80;97.50;;;;;;5106741;28;20406;-93
2023/01/16 05:21:43;;;;;;;22.47;15.00;;;4.80;97.40;;;;;;5107041;28;20407;-92
2023/01/16 05:24:09;;;;;;;23.63;15.67;;;4.80;97.40;;;;;;5089944;28;20497;-92
2023/01/16 05:26:34;;;;;;;23.33;16.40;;;4.80;97.50;;;;;;5090223;28;20924;-93
2023/01/16 05:29:00;;;;;;;21.03;15.93;;;4.80;97.50;;;;;;5089696;28;20399;-92
2023/01/16 05:31:25;;;;;;;23.53;15.63;;;4.70;97.50;;;;;;5108982;27;20901;-93
2023/01/16 05:33:51;;;;;;;24.60;16.98;;;4.70;97.40;;;;;;5094288;27;20399;-92
2023/01/16 05:36:17;;;;;;;25.65;17.98;;;4.60;97.30;;;;;;5092889;27;20415;-93
2023/01/16 05:38:42;;;;;;;23.83;17.80;;;4.50;97.40;;;;;;5093856;27;20793;-93
2023/01/16 05:41:08;;;;;;;25.80;17.57;;;4.50;97.40;;;;;;5092805;27;20937;-90
2023/01/16 05:43:33;;;;;;;26.25;17.70;;;4.40;97.50;;;;;;5093431;27;20402;-93
2023/01/16 05:45:59;;;;;;;27.27;18.37;;;4.40;97.60;;;;;;5109285;27;20477;-92
2023/01/16 05:48:25;;;;;;;28.03;18.37;;;4.30;97.70;;;;;;5093799;27;20402;-91
2023/01/16 05:50:51;;;;;;;29.37;19.17;;;4.30;97.80;;;;;;5093536;27;20485;-92
2023/01/16 05:53:16;;;;;;;29.65;18.65;;;4.20;97.80;;;;;;5093270;27;20457;-92
2023/01/16 05:55:44;;;;;;;30.50;19.10;;;4.20;97.90;;;;;;5110852;27;20438;-92
2023/01/16 05:58:12;;;;;;;29.65;19.27;;;4.20;98.00;;;;;;5092138;27;20853;-93
2023/01/16 06:00:39;;;;;;;29.30;20.58;;;4.20;98.20;;;;;;5093186;27;20438;-92
2023/01/16 06:03:05;;;;;;;30.75;20.75;;;4.20;98.20;;;;;;5109844;27;20477;-93
2023/01/16 06:05:31;;;;;;;30.88;20.98;;;4.20;98.20;;;;;;5093576;27;20401;-91
2023/01/16 06:07:57;;;;;;;31.13;21.40;;;4.30;98.30;;;;;;5092199;27;20725;-92
2023/01/16 06:10:24;;;;;;;32.27;21.90;;;4.30;98.20;;;;;;5093662;27;20395;-92
2023/01/16 06:12:49;;;;;;;26.02;19.40;;;4.30;98.30;;;;;;5093322;27;20399;-92
2023/01/16 06:15:15;;;;;;;30.90;20.53;;;4.30;98.20;;;;;;5092076;27;20456;-93
2023/01/16 06:17:41;;;;;;;28.08;20.35;;;4.30;98.20;;;;;;5093450;27;20411;-92
2023/01/16 06:20:07;;;;;;;28.13;19.80;;;4.30;98.10;;;;;;5092240;27;21042;-92
2023/01/16 06:22:33;;;;;;;28.10;20.03;;;4.30;98.20;;;;;;5092300;27;20403;-91
2023/01/16 06:24:59;;;;;;;30.13;20.50;;;4.40;98.20;;;;;;5092208;27;20462;-92
2023/01/16 06:27:24;;;;;;;28.25;20.33;;;4.40;98.10;;;;;;5093400;27;20897;-92
2023/01/16 06:29:50;;;;;;;28.23;20.60;;;4.40;98.10;;;;;;5092335;27;20416;-93
2023/01/16 06:32:16;;;;;;;31.87;20.17;;;4.40;98.10;;;;;;5092468;27;20406;-91
2023/01/16 06:34:42;;;;;;;27.93;19.07;;;4.40;98.20;;;;;;5093324;27;20394;-93
2023/01/16 06:37:08;;;;;;;29.85;19.77;;;4.30;98.20;;;;;;5091779;27;20778;-91
2023/01/16 06:39:34;;;;;;;27.48;19.42;;;4.40;98.20;;;;;;5109983;27;20395;-92
2023/01/16 06:42:03;;;;;;;26.83;18.50;;;4.50;98.30;;;;;;5090970;28;20455;-93
2023/01/16 06:44:29;;;;;;;26.00;18.23;;;4.40;98.20;;;;;;5109323;27;20403;-92
2023/01/16 06:46:54;;;;;;;26.65;17.90;;;4.30;98.10;;;;;;5091919;27;20418;-90
2023/01/16 06:49:20;;;;;;;24.87;17.37;;;4.20;98.00;;;;;;5093069;27;20407;-92
2023/01/16 06:51:46;;;;;;;24.87;16.97;;;4.20;98.00;;;;;;5092180;27;20919;-92
2023/01/16 06:54:11;;;;;;;22.63;16.17;;;4.30;98.10;;;;;;5091217;27;20417;-93
2023/01/16 06:56:37;;;;;;;23.30;16.30;;;4.30;98.10;;;;;;5092731;27;20414;-92
2023/01/16 06:59:03;;;;;;;23.98;14.77;;;4.20;98.20;;;;;;5091536;27;20780;-91
2023/01/16 07:01:29;;;;;;;20.83;15.15;;;4.20;98.20;;;;;;5092330;27;20902;-93
2023/01/16 07:03:55;;;;;;;25.42;15.02;;;4.00;98.20;;;;;;5091383;27;20432;-92
2023/01/16 07:06:20;;;;;;;21.08;13.70;;;4.00;98.20;;;;;;5091677;27;20976;-92
2023/01/16 07:08:48;;;;;;;24.60;14.27;;;4.00;98.20;;;;;;5091333;27;20395;-92
2023/01/16 07:11:14;;;;;;;21.92;14.75;;;4.00;98.20;;;;;;5092715;27;20410;-92
2023/01/16 07:13:40;;;;;;;22.20;13.95;;;4.00;98.20;;;;;;5092088;27;20395;-92
2023/01/16 07:24:29;;;;;;;18.83;12.90;;;3.90;98.20;;;;;;5108250;27;20399;-92
2023/01/16 07:26:58;;;;;;;18.77;12.63;;;4.00;98.20;;;;;;5092506;27;20438;-91
2023/01/16 07:29:25;;;;;;;22.60;13.05;;;3.80;98.20;;;;;;5090657;27;20466;-90
2023/01/16 07:31:51;;;;;;;22.27;12.63;;;3.80;98.20;;;;;;5091668;27;20399;-92
2023/01/16 07:34:17;;;;;;;19.27;12.48;;;3.80;98.20;;;;;;5090990;27;20424;-94
2023/01/16 07:36:43;;;;;;;20.17;11.80;;;3.80;98.20;;;;;;5091370;27;21023;-91
2023/01/16 07:39:08;;;;;;;18.60;12.38;;;3.80;98.20;;;;;;5090565;27;20479;-91
2023/01/16 07:41:34;;;;;;;18.97;11.03;;;3.80;98.10;;;;;;5107689;27;20424;-92
2023/01/16 07:44:00;;;;;;;18.60;11.87;;;3.70;98.10;;;;;;5091691;27;20391;-91
2023/01/16 07:46:25;;;;;;;17.65;11.50;;;3.70;98.10;;;;;;5090199;27;20406;-91
2023/01/16 07:48:53;;;;;;;18.88;11.93;;;3.70;98.20;;;;;;5091902;27;20391;-91
2023/01/16 07:51:18;;;;;;;19.90;11.48;;;3.70;98.20;;;;;;5090739;27;20447;-91
2023/01/16 07:53:44;;;;;;;19.63;10.97;;;3.70;98.20;;;;;;5108250;27;20420;-91
2023/01/16 07:56:10;;;;;;;16.73;10.88;;;3.60;98.20;;;;;;5090532;27;20943;-93
2023/01/16 07:58:37;;;;;;;17.33;11.00;;;3.70;98.30;;;;;;5091312;27;20395;-92
2023/01/16 08:01:05;;;;;;;18.30;10.85;;;3.60;98.30;;;;;;5091696;27;20411;-92
2023/01/16 08:03:31;;;;;;;18.43;10.53;;;3.70;98.40;;;;;;5089920;27;20402;-92
2023/01/16 08:05:58;;;;;;;18.77;11.10;;;3.70;98.40;;;;;;5091502;27;20887;-93
2023/01/16 08:08:25;;;;;;;18.38;10.07;;;3.70;98.30;;;;;;5089970;27;20474;-93
2023/01/16 08:10:59;;;;;;;16.95;10.10;;;3.70;98.30;;;;;;5108217;27;20394;-91
2023/01/16 08:13:26;;;;;;;17.25;9.73;;;3.70;98.40;;;;;;5090931;27;20394;-92
2023/01/16 08:15:52;;;;;;;17.65;9.57;;;3.70;98.40;;;;;;5090717;27;20395;-93
2023/01/16 08:18:19;;;;;;;17.85;9.50;;;3.70;98.40;;;;;;5090677;28;20437;-92
2023/01/16 08:20:46;;;;;;;17.15;9.77;;;3.70;98.40;;;;;;5090119;28;20554;-92
2023/01/16 08:23:12;;;;;;;15.00;9.02;;;3.70;98.30;;;;;;5091414;27;20414;-91
2023/01/16 08:25:38;;;;;;;15.00;8.70;;;3.80;98.30;;;;;;5089979;28;20479;-93
2023/01/16 08:28:04;;;;;;;13.27;8.27;;;3.80;98.40;;;;;;5090829;28;20398;-94
2023/01/16 08:30:30;;;;;;;12.52;7.90;;;4.10;98.40;;;;;;5107255;27;20777;-92
2023/01/16 08:33:00;;;;;;;13.80;8.30;;;4.00;98.30;;;;;;5091415;28;20408;-93
2023/01/16 08:35:26;;;;;;;15.53;8.30;;;3.90;98.20;;;;;;5090267;28;20398;-91
2023/01/16 08:37:51;;;;;;;14.47;8.17;;;3.90;98.20;;;;;;5090338;28;20836;-91
2023/01/16 08:40:17;;;;;;;14.40;7.90;;;3.90;98.20;;;;;;5090943;28;20523;-92
2023/01/16 08:51:22;;;;;;;14.57;7.78;;;4.10;98.00;;;;;;5107127;28;20769;-91
2023/01/16 08:53:48;;;;;;;13.50;7.30;;;4.10;97.90;;;;;;5090485;28;20402;-91
2023/01/16 08:56:14;;;;;;;13.27;7.22;;;4.20;97.90;;;;;;5089268;28;20877;-93
2023/01/16 08:58:40;;;;;;;14.35;7.60;;;4.20;97.80;;;;;;5090895;28;20418;-90
2023/01/16 09:01:05;;;;;;;11.25;7.18;;;4.20;97.80;;;;;;5089949;28;20904;-90
2023/01/16 09:03:33;;;;;;;13.82;7.47;;;4.20;97.70;;;;;;5090654;28;20730;-91
2023/01/16 09:05:59;;;;;;;13.63;6.80;;;4.20;97.60;;;;;;5091778;27;20402;-91
2023/01/16 09:08:24;;;;;;;12.97;7.40;;;4.30;97.50;;;;;;5093381;27;20761;-91
2023/01/16 09:13:49;;;;;;;12.55;7.22;;;4.40;97.50;;;;;;5110814;27;20802;-93
2023/01/16 09:16:20;;;;;;;13.43;7.43;;;4.30;97.40;;;;;;5094081;27;20402;-91
2023/01/16 09:18:46;;;;;;;11.35;6.43;;;4.40;97.40;;;;;;5093641;27;20967;-92
2023/01/16 09:21:12;;;;;;;11.73;6.20;;;4.40;97.30;;;;;;5093411;27;20405;-91
2023/01/16 09:23:38;;;;;;;13.57;7.17;;;4.40;97.20;;;;;;5094816;27;20403;-92
2023/01/16 09:26:04;;;;;;;12.17;7.10;;;4.40;97.20;;;;;;5092811;27;20391;-91
2023/01/16 09:28:30;;;;;;;13.15;7.53;;;4.50;97.30;;;;;;5094089;27;20406;-90
2023/01/16 09:30:55;;;;;;;11.20;7.20;;;4.50;97.30;;;;;;5109921;27;20398;-92
2023/01/16 09:33:21;;;;;;;13.40;7.35;;;4.50;97.30;;;;;;5093914;27;20447;-93
2023/01/16 09:35:46;;;;;;;13.23;7.73;;;4.50;97.30;;;;;;5093396;27;20881;-92
2023/01/16 09:38:12;;;;;;;10.67;7.40;;;4.60;97.70;;;;;;5093449;27;20426;-90
2023/01/16 09:40:38;;;;;;;12.43;7.90;;;4.50;97.40;;;;;;5110958;27;20429;-91
2023/01/16 09:43:38;;;;;;;13.50;7.75;;;4.60;97.40;;;;;;5092629;27;20405;-92
2023/01/16 09:46:13;;;;;;;15.32;8.93;;;4.70;97.40;;;;;;5090507;28;20427;-92
2023/01/16 09:48:56;;;;;;;13.60;7.90;;;4.60;97.60;;;;;;5106486;28;20427;-92
2023/01/16 09:51:24;;;;;;;11.52;7.95;;;4.60;97.40;;;;;;5090003;28;20492;-92
2023/01/16 09:59:33;;;;;;;14.05;7.53;;;4.60;97.40;;;;;;5107635;28;20787;-89
2023/01/16 10:02:12;;;;;;;13.48;7.32;;;4.60;97.40;;;;;;5089864;28;20640;-91
2023/01/16 10:04:38;;;;;;;12.45;7.47;;;4.60;97.60;;;;;;5089534;28;20441;-92
2023/01/16 10:07:38;;;;;;;12.07;6.57;;;4.80;97.60;;;;;;5107298;28;20442;-92
2023/01/16 10:10:18;;;;;;;10.73;6.35;;;4.70;97.70;;;;;;5088897;28;20404;-91
2023/01/16 10:13:10;;;;;;;12.10;5.63;;;4.70;97.60;;;;;;5090114;28;20839;-93
2023/01/16 10:15:59;;;;;;;9.73;6.75;;;4.70;97.50;;;;;;5089996;28;20636;-93
2023/01/16 10:19:04;;;;;;;10.27;6.30;;;4.70;97.60;;;;;;5088543;28;20428;-91
2023/01/16 10:22:04;;;;;;;9.80;7.22;;;4.70;97.90;;;;;;5082101;28;20411;-92
2023/01/16 10:24:58;;;;;;;10.33;5.83;;;4.70;97.70;;;;;;5090197;28;20480;-91
2023/01/16 10:27:50;;;;;;;11.43;7.15;;;4.70;97.60;;;;;;5088609;28;20408;-93
2023/01/16 10:30:23;;;;;;;11.20;7.30;;;4.70;97.70;;;;;;5089519;28;20404;-93
2023/01/16 10:33:09;;;;;;;9.47;6.77;;;4.70;97.70;;;;;;5090192;28;20732;-91
2023/01/16 10:35:39;;;;;;;10.50;7.20;;;4.70;97.90;;;;;;5088291;28;20500;-91
2023/01/16 10:38:14;;;;;;;10.65;6.15;;;4.70;97.80;;;;;;5089220;28;20432;-90
2023/01/16 10:40:41;;;;;;;11.07;7.00;;;4.80;98.10;;;;;;5088306;28;20412;-91
2023/01/16 10:51:48;;;;;;;12.45;6.40;;;4.80;98.10;;;;;;5106510;28;20778;-93
2023/01/16 10:54:15;;;;;;;10.17;5.93;;;4.80;98.10;;;;;;5105661;28;20499;-92
2023/01/16 10:56:43;;;;;;;11.07;5.85;;;4.70;98.20;;;;;;5105241;28;20911;-93
2023/01/16 10:59:12;;;;;;;8.52;4.85;;;4.70;98.20;;;;;;5106049;28;20401;-92
2023/01/16 11:01:40;;;;;;;6.35;3.60;;;4.80;98.30;;;;;;5087847;28;20440;-93
2023/01/16 11:04:10;;;;;;;8.48;4.20;;;4.60;98.00;;;;;;5089147;28;20396;-92
2023/01/16 11:06:40;;;;;;;4.80;2.97;;;4.60;98.10;;;;;;5088013;28;20419;-92
2023/01/16 11:09:14;;;;;;;5.75;2.83;;;4.60;98.00;;;;;;5137883;22;20447;-92
2023/01/16 11:20:29;;;;;;;4.90;2.75;;;4.20;98.20;;;;;;5065960;28;20412;-91
2023/01/16 11:22:58;;;;;;;6.40;3.53;;;4.20;98.30;;;;;;5051239;28;20412;-92
2023/01/16 11:25:25;;;;;;;4.50;2.60;;;4.20;98.60;;;;;;5049268;28;20450;-92
2023/01/16 11:27:52;;;;;;;3.33;2.60;;;4.20;98.60;;;;;;5050807;28;20478;-92
2023/01/16 11:30:21;;;;;;;3.75;2.50;;;4.20;98.50;;;;;;5049135;28;20411;-94
2023/01/16 11:32:49;;;;;;;3.17;2.38;;;4.10;98.20;;;;;;5050387;28;20426;-92
2023/01/16 11:35:17;;;;;;;4.50;2.63;;;4.10;98.40;;;;;;5050704;28;20411;-92
2023/01/16 11:37:45;;;;;;;3.47;2.55;;;4.40;98.40;;;;;;5049235;28;20782;-92
2023/01/16 11:40:22;;;;;;;4.30;3.85;;;4.10;98.40;;;;;;5051094;28;20410;-93
2023/01/16 11:46:02;;;;;;;3.17;2.55;;;4.00;98.40;;;;;;5066634;28;20469;-94
2023/01/16 11:48:34;;;;;;;3.05;2.75;;;4.20;98.50;;;;;;5050356;28;20427;-92
2023/01/16 11:51:01;;;;;;;3.85;2.45;;;3.90;98.40;;;;;;5049252;28;20400;-93
2023/01/16 11:53:33;;;;;;;2.37;1.70;;;3.90;98.50;;;;;;5050617;28;20407;-92
2023/01/16 11:56:10;;;;;;;2.40;1.98;;;4.00;98.30;;;;;;5048585;28;20449;-92
2023/01/16 11:59:07;;;;;;;2.13;1.50;;;3.90;98.30;;;;;;5050392;28;20440;-93
2023/01/16 12:04:37;;;;;;;3.57;2.70;;;3.80;98.40;;;;;;5064833;28;20400;-93
2023/01/16 12:07:17;;;;;;;4.43;3.00;;;3.90;98.70;;;;;;5050759;28;21022;-92
2023/01/16 12:09:45;;;;;;;3.30;2.80;;;3.80;98.70;;;;;;5049520;28;20427;-93
2023/01/16 12:15:22;;;;;;;3.45;2.70;;;3.80;98.50;;;;;;5066859;28;20448;-93
2023/01/16 12:18:13;;;;;;;3.20;2.90;;;3.80;98.50;;;;;;5048861;28;20428;-92
2023/01/16 12:20:56;;;;;;;3.78;2.75;;;3.80;98.60;;;;;;5049230;28;20407;-93
2023/01/16 12:23:46;;;;;;;3.97;2.58;;;3.80;98.50;;;;;;5050079;28;20408;-93
2023/01/16 12:26:12;;;;;;;3.58;2.67;;;3.80;98.60;;;;;;5048152;28;20416;-91
2023/01/16 12:28:46;;;;;;;4.17;3.57;;;3.90;98.90;;;;;;5050334;28;20499;-93
2023/01/16 12:31:36;;;;;;;3.93;3.60;;;4.20;98.90;;;;;;5048827;28;20899;-93
2023/01/16 12:34:21;;;;;;;5.40;3.97;;;3.90;98.90;;;;;;5048093;28;20475;-93
2023/01/16 12:36:53;;;;;;;5.35;4.10;;;3.90;99.10;;;;;;5050127;28;20477;-94
2023/01/16 12:39:40;;;;;;;5.10;4.00;;;4.00;98.90;;;;;;5047951;28;20412;-94
2023/01/16 12:45:35;;;;;;;4.80;3.70;;;4.00;98.70;;;;;;5070833;28;20415;-94
2023/01/16 12:48:37;;;;;;;4.78;4.20;;;4.00;98.70;;;;;;5052411;28;20423;-92
2023/01/16 12:51:21;;;;;;;4.17;3.50;;;4.00;98.70;;;;;;5022266;28;20470;-92
2023/01/16 12:54:23;;;;;;;4.68;3.78;;;4.00;98.80;;;;;;5054253;28;20437;-93
2023/01/16 12:57:06;;;;;;;4.88;4.47;;;4.00;98.70;;;;;;5052191;28;20784;-91
2023/01/16 12:59:53;;;;;;;5.80;5.15;;;4.10;98.90;;;;;;5053676;28;21096;-92
2023/01/16 13:02:24;;;;;;;4.47;4.00;;;4.10;98.90;;;;;;5054005;28;20430;-92
2023/01/16 13:04:57;;;;;;;4.37;3.80;;;4.10;99.00;;;;;;5051897;28;20404;-94
2023/01/16 13:07:27;;;;;;;3.90;3.40;;;4.10;98.80;;;;;;5054115;28;20478;-93
2023/01/16 13:15:46;;;;;;;5.50;4.05;;;4.30;98.90;;;;;;5070235;28;20419;-93
2023/01/16 13:18:34;;;;;;;5.40;3.35;;;4.20;98.90;;;;;;5051238;28;20428;-92
2023/01/16 13:21:03;;;;;;;5.50;4.15;;;4.20;98.80;;;;;;5053513;28;20416;-93
2023/01/16 13:23:48;;;;;;;5.05;4.05;;;4.30;99.00;;;;;;5052495;28;20412;-92
2023/01/16 13:26:16;;;;;;;4.88;3.97;;;4.30;99.00;;;;;;5051421;28;20418;-93
2023/01/16 13:29:09;;;;;;;5.50;4.47;;;4.30;99.00;;;;;;5053445;28;20922;-93
2023/01/16 13:31:45;;;;;;;6.28;5.20;;;4.30;99.10;;;;;;5051491;28;20415;-92
2023/01/16 13:34:14;;;;;;;7.60;5.82;;;4.30;99.20;;;;;;5052448;28;20418;-92
2023/01/16 13:37:16;;;;;;;7.28;5.30;;;4.40;99.20;;;;;;5052911;28;20438;-93
2023/01/16 13:40:08;;;;;;;7.05;5.40;;;4.40;99.20;;;;;;5051224;28;21026;-93
2023/01/16 13:42:38;;;;;;;8.82;5.60;;;4.40;99.20;;;;;;5052988;28;20507;-93
2023/01/16 13:48:00;;;;;;;7.05;5.72;;;4.40;99.10;;;;;;5067707;28;20400;-92
2023/01/16 13:50:31;;;;;;;7.68;6.80;;;4.50;99.20;;;;;;5053570;28;20463;-94
2023/01/16 13:53:01;;;;;;;8.60;6.45;;;4.50;99.20;;;;;;5050407;28;20408;-91
2023/01/16 13:55:47;;;;;;;8.05;7.05;;;4.50;99.30;;;;;;5052327;28;20416;-93
2023/01/16 13:58:18;;;;;;;7.13;6.35;;;4.50;99.30;;;;;;5052263;28;20431;-92
2023/01/16 14:00:44;;;;;;;10.55;7.80;;;4.50;99.30;;;;;;5051302;28;20414;-92
2023/01/16 14:03:25;;;;;;;10.18;8.00;;;4.50;99.30;;;;;;5052523;28;20595;-92
2023/01/16 14:06:10;;;;;;;10.60;8.30;;;4.60;99.30;;;;;;5050601;28;20490;-94
2023/01/16 14:09:11;;;;;;;9.13;7.85;;;4.60;99.50;;;;;;5052157;28;20419;-92
2023/01/16 14:11:39;;;;;;;11.60;9.45;;;4.50;99.40;;;;;;5052040;28;20419;-92
2023/01/16 14:17:11;;;;;;;11.90;9.55;;;4.50;99.50;;;;;;5068649;28;20420;-93
2023/01/16 14:20:01;;;;;;;11.30;10.10;;;4.50;99.40;;;;;;5051918;28;20903;-93
2023/01/16 14:25:09;;;;;;;10.52;9.20;;;4.70;99.60;;;;;;5068759;28;20407;-91